Time;durP1;ratioP1;P1;durP2;ratioP2;P2;SDS_P1;SDS_P2;PMS_P1;PMS_P2;Temp;Humidity;BMP_temperature;BMP_pressure;BME280_temperature;BME280_humidity;BME280_pressure;Samples;Min_cycle;Max_cycle;Signal;HPM_P1;HPM_P2
2023/08/08 00:01:53;;;;;;;1999.90;999.90;;;14.60;99.90;;;;;;5016160;28;20036;-69
2023/08/08 00:04:19;;;;;;;1999.90;999.90;;;14.60;99.90;;;;;;5015899;28;20026;-70
2023/08/08 00:06:44;;;;;;;1999.90;999.90;;;14.50;99.90;;;;;;4998240;28;20478;-69
2023/08/08 00:09:10;;;;;;;1999.90;999.90;;;14.50;99.90;;;;;;4998049;28;20121;-70
2023/08/08 00:11:35;;;;;;;1999.90;999.90;;;14.40;99.90;;;;;;5015816;28;20018;-69
2023/08/08 00:14:01;;;;;;;1999.90;999.90;;;14.40;99.90;;;;;;5015844;28;20064;-69
2023/08/08 00:16:27;;;;;;;1999.90;999.90;;;14.40;99.90;;;;;;5016093;28;20442;-69
2023/08/08 00:18:53;;;;;;;1999.90;999.90;;;14.30;99.90;;;;;;5015928;28;20030;-69
2023/08/08 00:21:20;;;;;;;1999.90;999.90;;;14.30;99.90;;;;;;5014823;28;20025;-69
2023/08/08 00:23:45;;;;;;;1999.90;999.90;;;14.30;99.90;;;;;;5015188;28;20495;-69
2023/08/08 00:26:11;;;;;;;1999.90;999.90;;;14.30;99.90;;;;;;5035338;28;20105;-70
2023/08/08 00:28:37;;;;;;;1999.90;999.90;;;14.30;99.90;;;;;;5017276;28;20029;-69
2023/08/08 00:31:03;;;;;;;1999.90;999.90;;;14.20;99.90;;;;;;5035375;28;20134;-69
2023/08/08 00:33:28;;;;;;;1999.90;999.90;;;14.10;99.90;;;;;;5034977;28;20033;-69
2023/08/08 00:35:54;;;;;;;1999.90;999.90;;;14.10;99.90;;;;;;5032655;28;20040;-69
2023/08/08 00:38:19;;;;;;;1999.90;999.90;;;14.10;99.90;;;;;;5034677;28;20060;-70
2023/08/08 00:40:45;;;;;;;1999.90;999.90;;;14.10;99.90;;;;;;5017209;28;20537;-70
2023/08/08 00:43:11;;;;;;;1999.90;999.90;;;14.10;99.90;;;;;;5046037;28;20045;-69
2023/08/08 00:45:38;;;;;;;1999.90;999.90;;;14.00;99.90;;;;;;5054647;28;20025;-69
2023/08/08 00:48:04;;;;;;;1999.90;999.90;;;14.00;99.90;;;;;;5036307;28;20096;-69
2023/08/08 00:50:30;;;;;;;1999.90;999.90;;;14.00;99.90;;;;;;5034832;28;20099;-69
2023/08/08 00:52:56;;;;;;;1999.90;999.90;;;14.00;99.90;;;;;;5017125;28;20069;-78
2023/08/08 00:55:21;;;;;;;1999.90;999.90;;;14.00;99.90;;;;;;5016927;28;20033;-69
2023/08/08 00:57:47;;;;;;;1999.90;999.90;;;13.90;99.90;;;;;;5033792;28;20044;-69
2023/08/08 01:00:13;;;;;;;1999.90;999.90;;;13.90;99.90;;;;;;5034711;28;20443;-69
2023/08/08 01:02:39;;;;;;;1999.90;999.90;;;13.80;99.90;;;;;;5034560;28;20395;-69
2023/08/08 01:05:05;;;;;;;1999.90;999.90;;;13.80;99.90;;;;;;5034650;28;20029;-69
2023/08/08 01:07:51;;;;;;;1999.90;999.90;;;13.70;99.90;;;;;;5034500;28;20026;-69
2023/08/08 01:10:31;;;;;;;1999.90;999.90;;;13.60;99.90;;;;;;5019615;28;20052;-69
2023/08/08 01:13:01;;;;;;;1999.90;999.90;;;13.70;99.90;;;;;;5034641;28;20096;-69
2023/08/08 01:15:32;;;;;;;1999.90;999.90;;;13.60;99.90;;;;;;5034235;28;20034;-70
2023/08/08 01:17:58;;;;;;;1999.90;999.90;;;13.70;99.90;;;;;;5034688;28;20035;-69
2023/08/08 01:20:24;;;;;;;1999.90;999.90;;;13.70;99.90;;;;;;5034411;28;20031;-77
2023/08/08 01:23:06;;;;;;;1999.90;999.90;;;13.60;99.90;;;;;;5034156;28;20068;-69
2023/08/08 01:25:32;;;;;;;1999.90;999.90;;;13.60;99.90;;;;;;5034124;28;20021;-69
2023/08/08 01:27:58;;;;;;;1999.90;999.90;;;13.60;99.90;;;;;;5034174;28;20480;-69
2023/08/08 01:30:23;;;;;;;1999.90;999.90;;;13.50;99.90;;;;;;5034396;28;20105;-70
2023/08/08 01:32:49;;;;;;;1999.90;999.90;;;13.50;99.90;;;;;;5034253;28;20022;-79
2023/08/08 01:35:15;;;;;;;1999.90;999.90;;;13.50;99.90;;;;;;5015955;28;20021;-77
2023/08/08 01:37:48;;;;;;;1999.90;999.90;;;13.50;99.90;;;;;;5033385;28;20041;-70
2023/08/08 01:40:17;;;;;;;1999.90;999.90;;;13.50;99.90;;;;;;5033136;28;20021;-69
2023/08/08 01:42:46;;;;;;;1999.90;999.90;;;13.50;99.90;;;;;;5033648;28;20052;-69
2023/08/08 01:45:12;;;;;;;1999.90;999.90;;;13.50;99.90;;;;;;5033915;28;20029;-78
2023/08/08 01:47:37;;;;;;;1999.90;999.90;;;13.40;99.90;;;;;;5033418;28;20029;-79
2023/08/08 01:50:03;;;;;;;1999.90;999.90;;;13.40;99.90;;;;;;5033605;28;20029;-69
2023/08/08 01:52:29;;;;;;;1999.90;999.90;;;13.40;99.90;;;;;;5033599;28;20489;-69
2023/08/08 01:54:56;;;;;;;1999.90;999.90;;;13.50;99.90;;;;;;5016131;28;20049;-69
2023/08/08 01:57:22;;;;;;;1999.90;999.90;;;13.40;99.90;;;;;;5033454;28;20025;-69
2023/08/08 01:59:48;;;;;;;1999.90;999.90;;;13.40;99.90;;;;;;5033895;28;20037;-77
2023/08/08 02:02:15;;;;;;;1999.90;999.90;;;13.40;99.90;;;;;;5034928;28;20026;-69
2023/08/08 02:04:40;;;;;;;1999.90;999.90;;;13.50;99.90;;;;;;5033415;28;20029;-68
2023/08/08 02:07:06;;;;;;;1999.90;999.90;;;13.50;99.90;;;;;;5033584;28;20079;-69
2023/08/08 02:09:31;;;;;;;1999.90;999.90;;;13.50;99.90;;;;;;5033210;28;20408;-69
2023/08/08 02:11:57;;;;;;;1999.90;999.90;;;13.60;99.90;;;;;;5033140;28;20100;-69
2023/08/08 02:14:22;;;;;;;1999.90;999.90;;;13.60;99.90;;;;;;5033237;28;20457;-79
2023/08/08 02:16:48;;;;;;;1999.90;999.90;;;13.60;99.90;;;;;;5033236;28;20032;-69
2023/08/08 02:19:15;;;;;;;1999.90;999.90;;;13.70;99.90;;;;;;5015478;28;20036;-70
2023/08/08 02:21:40;;;;;;;1999.90;999.90;;;13.70;99.90;;;;;;5033034;28;20021;-69
2023/08/08 02:24:06;;;;;;;1999.90;999.90;;;13.80;99.90;;;;;;5033054;28;20040;-69
2023/08/08 02:26:32;;;;;;;1999.90;999.90;;;13.90;99.90;;;;;;5033223;28;20480;-70
2023/08/08 02:28:57;;;;;;;1999.90;999.90;;;13.90;99.90;;;;;;5033061;28;20491;-69
2023/08/08 02:31:23;;;;;;;1999.90;999.90;;;13.90;99.90;;;;;;5015279;28;20022;-69
2023/08/08 02:33:52;;;;;;;1999.90;999.90;;;13.90;99.90;;;;;;5033420;28;20035;-69
2023/08/08 02:36:18;;;;;;;1999.90;999.90;;;13.80;99.90;;;;;;5034287;28;20435;-69
2023/08/08 02:38:44;;;;;;;1999.90;999.90;;;13.70;99.90;;;;;;5045991;28;20113;-78
2023/08/08 02:41:10;;;;;;;1999.90;999.90;;;13.60;99.90;;;;;;5032838;28;20033;-69
2023/08/08 02:43:36;;;;;;;1999.90;999.90;;;13.60;99.90;;;;;;5032618;28;20123;-69
2023/08/08 02:46:01;;;;;;;1999.90;999.90;;;13.50;99.90;;;;;;5032889;28;20033;-69
2023/08/08 02:48:29;;;;;;;1999.90;999.90;;;13.50;99.90;;;;;;5032899;28;20403;-69
2023/08/08 02:50:55;;;;;;;1999.90;999.90;;;13.50;99.90;;;;;;5032833;28;20404;-78
2023/08/08 02:53:20;;;;;;;1999.90;999.90;;;13.50;99.90;;;;;;5032746;28;20063;-70
2023/08/08 02:55:47;;;;;;;1999.90;999.90;;;13.60;99.90;;;;;;5033028;28;20128;-69
2023/08/08 02:58:12;;;;;;;1999.90;999.90;;;13.60;99.90;;;;;;5032770;28;20489;-69
2023/08/08 03:00:38;;;;;;;1999.90;999.90;;;13.60;99.90;;;;;;5032723;28;20097;-69
2023/08/08 03:03:04;;;;;;;1999.90;999.90;;;13.60;99.90;;;;;;5014920;28;20171;-78
2023/08/08 03:05:30;;;;;;;1999.90;999.90;;;13.70;99.90;;;;;;5032567;28;20022;-78
2023/08/08 03:07:55;;;;;;;1999.90;999.90;;;13.70;99.90;;;;;;5032618;28;20025;-69
2023/08/08 03:10:21;;;;;;;1999.90;999.90;;;13.80;99.90;;;;;;5032613;28;20024;-69
2023/08/08 03:12:46;;;;;;;1999.90;999.90;;;13.80;99.90;;;;;;5032702;28;20396;-69
2023/08/08 03:15:12;;;;;;;1999.90;999.90;;;13.80;99.90;;;;;;5014750;28;20534;-70
2023/08/08 03:17:38;;;;;;;1999.90;999.90;;;13.80;99.90;;;;;;5032333;28;20037;-78
2023/08/08 03:20:06;;;;;;;1999.90;999.90;;;13.80;99.90;;;;;;5032561;28;20547;-69
2023/08/08 03:22:31;;;;;;;1999.90;999.90;;;13.80;99.90;;;;;;5031845;28;20021;-69
2023/08/08 03:24:58;;;;;;;1999.90;999.90;;;13.80;99.90;;;;;;5032341;28;20030;-69
2023/08/08 03:27:24;;;;;;;1999.90;999.90;;;13.80;99.90;;;;;;5014715;28;20561;-69
2023/08/08 03:29:49;;;;;;;1999.90;999.90;;;13.80;99.90;;;;;;5032416;28;20021;-69
2023/08/08 03:32:15;;;;;;;1999.90;999.90;;;13.70;99.90;;;;;;5032467;28;20022;-79
2023/08/08 03:34:40;;;;;;;1999.90;999.90;;;13.60;99.90;;;;;;5034450;28;20017;-69
2023/08/08 03:37:06;;;;;;;1999.90;999.90;;;13.60;99.90;;;;;;5018585;28;20036;-69
2023/08/08 03:39:32;;;;;;;1999.90;999.90;;;13.50;99.90;;;;;;5035516;28;20109;-69
2023/08/08 03:41:57;;;;;;;1999.90;999.90;;;13.50;99.90;;;;;;5018422;28;20044;-78
2023/08/08 03:44:23;;;;;;;1999.90;999.90;;;13.40;99.90;;;;;;5035845;28;20048;-77
2023/08/08 03:46:49;;;;;;;1999.90;999.90;;;13.40;99.90;;;;;;5035964;28;20026;-69
2023/08/08 03:49:15;;;;;;;1999.90;999.90;;;13.40;99.90;;;;;;5018177;28;20492;-69
2023/08/08 03:51:40;;;;;;;1999.90;999.90;;;13.30;99.90;;;;;;5017530;28;20032;-69
2023/08/08 03:54:06;;;;;;;1999.90;999.90;;;13.30;99.90;;;;;;5017972;28;20025;-69
2023/08/08 03:56:32;;;;;;;1999.90;999.90;;;13.30;99.90;;;;;;5035995;28;20029;-69
2023/08/08 03:58:58;;;;;;;1999.90;999.90;;;13.20;99.90;;;;;;5035550;28;20021;-69
2023/08/08 04:01:23;;;;;;;1999.90;999.90;;;13.30;99.90;;;;;;5036065;28;20104;-70
2023/08/08 04:03:49;;;;;;;1999.90;999.90;;;13.30;99.90;;;;;;5017998;28;20543;-69
2023/08/08 04:06:15;;;;;;;1999.90;999.90;;;13.30;99.90;;;;;;5035257;28;20396;-69
2023/08/08 04:08:40;;;;;;;1999.90;999.90;;;13.30;99.90;;;;;;5034928;28;20097;-78
2023/08/08 04:11:06;;;;;;;1999.90;999.90;;;13.30;99.90;;;;;;5035510;28;20547;-79
2023/08/08 04:13:31;;;;;;;1999.90;999.90;;;13.30;99.90;;;;;;5035569;28;20029;-69
2023/08/08 04:15:57;;;;;;;1999.90;999.90;;;13.40;99.90;;;;;;5017785;28;20475;-69
2023/08/08 04:18:23;;;;;;;1999.90;999.90;;;13.40;99.90;;;;;;5035780;28;20044;-69
2023/08/08 04:20:48;;;;;;;1999.90;999.90;;;13.40;99.90;;;;;;5017615;28;20029;-69
2023/08/08 04:23:14;;;;;;;1999.90;999.90;;;13.40;99.90;;;;;;5035172;28;20017;-69
2023/08/08 04:25:39;;;;;;;1999.90;999.90;;;13.30;99.90;;;;;;5017621;28;20082;-69
2023/08/08 04:28:05;;;;;;;1999.90;999.90;;;13.40;99.90;;;;;;5035161;28;20037;-69
2023/08/08 04:30:31;;;;;;;1999.90;999.90;;;13.30;99.90;;;;;;5035544;28;20029;-69
2023/08/08 04:32:56;;;;;;;1999.90;999.90;;;13.30;99.90;;;;;;5035437;28;20088;-69
2023/08/08 04:35:22;;;;;;;1999.90;999.90;;;13.30;99.90;;;;;;5017051;28;20029;-69
2023/08/08 04:37:48;;;;;;;1999.90;999.90;;;13.30;99.90;;;;;;5035743;28;20437;-69
2023/08/08 04:40:13;;;;;;;1999.90;999.90;;;13.30;99.90;;;;;;5034217;28;20084;-69
2023/08/08 04:42:39;;;;;;;1999.90;999.90;;;13.30;99.90;;;;;;5034920;28;20100;-70
2023/08/08 04:45:06;;;;;;;1999.90;999.90;;;13.30;99.90;;;;;;5034076;28;20117;-69
2023/08/08 04:47:31;;;;;;;1999.90;999.90;;;13.30;99.90;;;;;;5034169;28;20053;-78
2023/08/08 04:49:57;;;;;;;1999.90;999.90;;;13.30;99.90;;;;;;5035014;28;20606;-79
2023/08/08 04:52:23;;;;;;;1999.90;999.90;;;13.20;99.90;;;;;;5034873;28;20021;-69
2023/08/08 04:54:48;;;;;;;1999.90;999.90;;;13.20;99.90;;;;;;5017124;28;20439;-69
2023/08/08 04:57:14;;;;;;;1999.90;999.90;;;13.10;99.90;;;;;;5034917;28;20022;-70
2023/08/08 04:59:39;;;;;;;1999.90;999.90;;;13.10;99.90;;;;;;5034690;28;20041;-69
2023/08/08 05:02:05;;;;;;;1999.90;999.90;;;13.00;99.90;;;;;;5034637;28;20025;-77
2023/08/08 05:04:31;;;;;;;1999.90;999.90;;;13.10;99.90;;;;;;5016698;28;20040;-70
2023/08/08 05:06:57;;;;;;;1999.90;999.90;;;13.10;99.90;;;;;;5034966;28;20017;-70
2023/08/08 05:09:26;;;;;;;1999.90;999.90;;;13.10;99.90;;;;;;5034552;28;20018;-70
2023/08/08 05:11:52;;;;;;;1999.90;999.90;;;13.10;99.90;;;;;;5034531;28;20021;-69
2023/08/08 05:14:18;;;;;;;1999.90;999.90;;;13.10;99.90;;;;;;5034433;28;20029;-69
2023/08/08 05:16:44;;;;;;;1999.90;999.90;;;13.10;99.90;;;;;;5034319;28;20025;-69
2023/08/08 05:19:10;;;;;;;1999.90;999.90;;;13.10;99.90;;;;;;5034531;28;20035;-69
2023/08/08 05:21:35;;;;;;;1999.90;999.90;;;13.10;99.90;;;;;;5034107;28;20029;-69
2023/08/08 05:24:01;;;;;;;1999.90;999.90;;;13.10;99.90;;;;;;5037530;28;20100;-69
2023/08/08 05:26:26;;;;;;;1999.90;999.90;;;13.10;99.90;;;;;;5036136;28;20025;-78
2023/08/08 05:28:52;;;;;;;1999.90;999.90;;;13.00;99.90;;;;;;5054209;28;20025;-69
2023/08/08 05:31:18;;;;;;;1999.90;999.90;;;13.10;99.90;;;;;;5054112;28;20033;-69
2023/08/08 05:33:43;;;;;;;1999.90;999.90;;;13.20;99.90;;;;;;5054183;28;20445;-69
2023/08/08 05:36:09;;;;;;;1999.90;999.90;;;13.10;99.90;;;;;;5039466;28;20056;-69
2023/08/08 05:38:36;;;;;;;1999.90;999.90;;;13.10;99.90;;;;;;5039371;28;20036;-77
2023/08/08 05:41:02;;;;;;;1999.90;999.90;;;13.10;99.90;;;;;;5034417;28;20039;-78
2023/08/08 05:43:27;;;;;;;1999.90;999.90;;;13.10;99.90;;;;;;5036532;28;20052;-69
2023/08/08 05:45:53;;;;;;;1999.90;999.90;;;13.20;99.90;;;;;;5048761;28;20029;-69
2023/08/08 05:48:19;;;;;;;1999.90;999.90;;;13.20;99.90;;;;;;5015143;28;20503;-69
2023/08/08 05:50:44;;;;;;;1999.90;999.90;;;13.30;99.90;;;;;;5030003;28;20029;-69
2023/08/08 05:53:10;;;;;;;1999.90;999.90;;;13.40;99.90;;;;;;5033388;28;20507;-69
2023/08/08 05:55:36;;;;;;;1999.90;999.90;;;13.40;99.90;;;;;;5033347;28;20026;-78
2023/08/08 05:58:01;;;;;;;1999.90;999.90;;;13.50;99.90;;;;;;5042559;28;20047;-69
2023/08/08 06:00:27;;;;;;;1999.90;999.90;;;13.60;99.90;;;;;;5036741;28;20036;-69
2023/08/08 06:02:53;;;;;;;1999.90;999.90;;;13.70;99.90;;;;;;5033261;28;20056;-70
2023/08/08 06:05:22;;;;;;;1999.90;999.90;;;13.80;99.90;;;;;;5027937;28;20021;-78
2023/08/08 06:07:48;;;;;;;1999.90;999.90;;;13.90;99.90;;;;;;5015479;28;20034;-69
2023/08/08 06:10:13;;;;;;;1999.90;999.90;;;13.90;99.90;;;;;;5035177;28;20066;-70
2023/08/08 06:12:39;;;;;;;1999.90;999.90;;;14.00;99.90;;;;;;5033839;28;20029;-69
2023/08/08 06:15:05;;;;;;;1999.90;999.90;;;14.10;99.90;;;;;;5032806;28;20028;-69
2023/08/08 06:17:31;;;;;;;1999.90;999.90;;;14.20;99.90;;;;;;5032064;28;20086;-69
2023/08/08 06:19:57;;;;;;;1999.90;999.90;;;14.40;99.90;;;;;;5032758;28;20022;-78
2023/08/08 06:22:23;;;;;;;1999.90;999.90;;;14.50;99.90;;;;;;5033780;28;20416;-70
2023/08/08 06:24:48;;;;;;;1999.90;999.90;;;14.60;99.90;;;;;;5041642;28;20152;-70
2023/08/08 06:27:14;;;;;;;1999.90;999.90;;;14.70;99.90;;;;;;5031555;28;20506;-70
2023/08/08 06:29:39;;;;;;;1999.90;999.90;;;14.80;99.90;;;;;;5023930;28;20017;-70
2023/08/08 06:32:05;;;;;;;1999.90;999.90;;;14.90;99.90;;;;;;5013645;28;20037;-78
2023/08/08 06:34:31;;;;;;;1999.90;999.90;;;15.00;99.90;;;;;;5014237;28;20408;-76
2023/08/08 06:36:57;;;;;;;1999.90;999.90;;;15.10;99.90;;;;;;5028141;28;20022;-70
2023/08/08 06:39:23;;;;;;;1999.90;999.90;;;15.20;99.90;;;;;;5013518;28;20435;-70
2023/08/08 06:41:48;;;;;;;1999.90;999.90;;;15.40;99.90;;;;;;5030937;28;20026;-70
2023/08/08 06:44:14;;;;;;;1999.90;999.90;;;15.50;99.90;;;;;;5030247;28;20160;-78
2023/08/08 06:46:40;;;;;;;1999.90;999.90;;;15.60;99.90;;;;;;5030053;28;20024;-70
2023/08/08 06:49:08;;;;;;;1999.90;999.90;;;15.80;99.90;;;;;;5011231;28;20319;-69
2023/08/08 06:51:34;;;;;;;1999.90;999.90;;;15.90;99.90;;;;;;5014466;28;20484;-70
2023/08/08 06:54:00;;;;;;;1999.90;999.90;;;16.10;99.90;;;;;;5029177;28;20036;-70
2023/08/08 06:56:28;;;;;;;1999.90;999.90;;;16.20;99.90;;;;;;5030078;28;20104;-70
2023/08/08 06:58:54;;;;;;;1999.90;999.90;;;16.40;99.90;;;;;;5024510;28;20034;-70
2023/08/08 07:01:20;;;;;;;1999.90;999.90;;;16.40;99.90;;;;;;5011653;28;20113;-70
2023/08/08 07:03:46;;;;;;;1999.90;999.90;;;16.60;99.90;;;;;;5035540;28;20112;-69
2023/08/08 07:06:12;;;;;;;1999.90;999.90;;;16.70;99.90;;;;;;5033118;28;20034;-70
2023/08/08 07:08:39;;;;;;;1999.90;999.90;;;16.90;99.90;;;;;;5031168;28;20064;-72
2023/08/08 07:11:08;;;;;;;1999.90;999.90;;;17.00;99.90;;;;;;5035455;28;20096;-73
2023/08/08 07:13:33;;;;;;;1999.90;999.90;;;17.20;99.90;;;;;;5029107;28;20104;-72
2023/08/08 07:15:59;;;;;;;1999.90;999.90;;;17.40;99.90;;;;;;5034729;28;20159;-71
2023/08/08 07:18:25;;;;;;;1999.90;999.90;;;17.40;99.90;;;;;;5016459;28;20428;-71
2023/08/08 07:20:50;;;;;;;1999.90;999.90;;;17.70;99.90;;;;;;5030167;28;20033;-70
2023/08/08 07:23:16;;;;;;;1999.90;999.90;;;17.90;99.90;;;;;;5034568;28;20412;-70
2023/08/08 07:25:42;;;;;;;1999.90;999.90;;;18.10;99.90;;;;;;5037242;28;20112;-75
2023/08/08 07:28:08;;;;;;;1999.90;999.90;;;18.20;99.90;;;;;;5014268;28;20407;-70
2023/08/08 07:30:34;;;;;;;1999.90;999.90;;;18.20;99.90;;;;;;5010557;28;20025;-70
2023/08/08 07:33:00;;;;;;;1999.90;999.90;;;18.40;99.90;;;;;;5014583;28;20057;-70
2023/08/08 07:35:26;;;;;;;1999.90;999.90;;;18.50;99.90;;;;;;5033648;28;20119;-70
2023/08/08 07:37:51;;;;;;;1999.90;999.90;;;18.80;99.90;;;;;;5016028;28;20037;-69
2023/08/08 07:40:18;;;;;;;1999.90;999.90;;;18.80;99.90;;;;;;5032114;28;20124;-70
2023/08/08 07:42:45;;;;;;;1999.90;999.90;;;18.80;99.90;;;;;;5033125;28;20488;-69
2023/08/08 07:45:11;;;;;;;1999.90;999.90;;;19.00;99.90;;;;;;5012673;28;21496;-68
2023/08/08 07:47:36;;;;;;;1999.90;999.90;;;19.20;99.90;;;;;;5033344;28;20029;-69
2023/08/08 07:50:02;;;;;;;1999.90;999.90;;;19.40;99.90;;;;;;5040599;28;20080;-70
2023/08/08 07:52:28;;;;;;;1999.90;999.90;;;19.60;99.90;;;;;;5031644;28;20029;-76
2023/08/08 07:54:53;;;;;;;1999.90;999.90;;;19.90;99.90;;;;;;5035865;28;20113;-70
2023/08/08 07:57:19;;;;;;;1999.90;999.90;;;20.80;99.90;;;;;;5032289;28;20112;-71
2023/08/08 07:59:44;;;;;;;1999.90;999.90;;;23.90;99.90;;;;;;5032149;28;20061;-70
2023/08/08 08:02:10;;;;;;;1999.90;999.90;;;26.50;99.90;;;;;;5034676;28;20037;-75
2023/08/08 08:04:36;;;;;;;1999.90;999.90;;;28.00;99.90;;;;;;5033496;28;20022;-77
2023/08/08 08:07:02;;;;;;;1999.90;999.90;;;29.00;99.90;;;;;;5030001;28;20037;-70
2023/08/08 08:09:28;;;;;;;1999.90;999.90;;;29.50;98.40;;;;;;5032669;28;20097;-71
2023/08/08 08:11:53;;;;;;;1999.90;999.90;;;30.50;97.90;;;;;;5033223;28;20026;-72
2023/08/08 08:14:20;;;;;;;1999.90;999.90;;;30.60;95.80;;;;;;5032432;28;20075;-72
2023/08/08 08:16:46;;;;;;;1999.90;999.90;;;30.60;95.50;;;;;;5027558;28;20479;-71
2023/08/08 08:19:12;;;;;;;1999.90;999.90;;;31.00;95.30;;;;;;5029311;28;20111;-72
2023/08/08 08:21:37;;;;;;;1999.90;999.90;;;30.50;95.00;;;;;;5029982;28;20120;-72
2023/08/08 08:24:03;;;;;;;1999.90;999.90;;;30.90;94.20;;;;;;5014619;28;20017;-72
2023/08/08 08:26:29;;;;;;;1999.90;999.90;;;30.30;94.20;;;;;;5031025;28;20036;-72
2023/08/08 08:28:55;;;;;;;1999.90;999.90;;;30.50;94.30;;;;;;5011442;28;20496;-76
2023/08/08 08:31:20;;;;;;;1999.90;999.90;;;30.50;93.40;;;;;;5026056;28;20041;-76
2023/08/08 08:33:46;;;;;;;1999.90;999.90;;;30.90;93.00;;;;;;5031872;28;20037;-72
2023/08/08 08:36:12;;;;;;;1999.90;999.90;;;31.80;92.70;;;;;;5031155;28;20508;-72
2023/08/08 08:38:38;;;;;;;1999.90;999.90;;;32.40;91.30;;;;;;5032633;28;20037;-72
2023/08/08 08:41:04;;;;;;;1999.90;999.90;;;32.00;91.70;;;;;;5033772;28;20041;-72
2023/08/08 08:43:33;;;;;;;1999.90;999.90;;;31.90;91.90;;;;;;5033655;28;20500;-76
2023/08/08 08:46:02;;;;;;;1999.90;999.90;;;31.80;91.30;;;;;;5033634;28;20042;-73
2023/08/08 08:48:28;;;;;;;1999.90;999.90;;;32.90;90.90;;;;;;5033157;28;20531;-73
2023/08/08 08:50:53;;;;;;;1999.90;999.90;;;31.80;90.20;;;;;;5033799;28;20030;-72
2023/08/08 08:53:20;;;;;;;1999.90;999.90;;;31.90;91.10;;;;;;5033739;28;20435;-73
2023/08/08 08:55:47;;;;;;;1999.90;999.90;;;32.70;90.40;;;;;;5033477;28;20083;-77
2023/08/08 08:58:16;;;;;;;1999.90;999.90;;;32.20;91.20;;;;;;5028386;28;20021;-72
2023/08/08 09:00:43;;;;;;;1999.90;999.90;;;33.60;90.60;;;;;;5032109;28;20033;-72
2023/08/08 09:03:09;;;;;;;1999.90;999.90;;;33.00;90.40;;;;;;5034061;28;20013;-73
2023/08/08 09:05:36;;;;;;;1999.90;999.90;;;33.40;90.20;;;;;;5016379;28;20492;-73
2023/08/08 09:08:02;;;;;;;1999.90;999.90;;;33.40;88.80;;;;;;5034729;28;20017;-73
2023/08/08 09:10:31;;;;;;;1999.90;999.90;;;32.50;86.90;;;;;;5024571;28;20543;-76
2023/08/08 09:12:57;;;;;;;1999.90;999.90;;;32.50;87.60;;;;;;5028977;28;20018;-72
2023/08/08 09:15:23;;;;;;;1999.90;999.90;;;32.80;86.60;;;;;;5033496;28;20036;-72
2023/08/08 09:17:48;;;;;;;1999.90;999.90;;;32.80;87.50;;;;;;5034172;28;20028;-73
2023/08/08 09:20:14;;;;;;;1999.90;999.90;;;32.90;88.30;;;;;;5016487;28;20029;-75
2023/08/08 09:22:40;;;;;;;1999.90;999.90;;;33.80;87.20;;;;;;5032371;28;20453;-75
2023/08/08 09:25:07;;;;;;;1999.90;999.90;;;35.10;85.30;;;;;;5030935;28;20037;-71
2023/08/08 09:27:34;;;;;;;1999.90;999.90;;;35.10;85.10;;;;;;5032709;28;20056;-72
2023/08/08 09:29:59;;;;;;;1999.90;999.90;;;35.70;83.90;;;;;;5029793;28;20044;-72
2023/08/08 09:32:31;;;;;;;1999.90;999.90;;;35.10;83.40;;;;;;5030730;28;20017;-71
2023/08/08 09:34:58;;;;;;;1999.90;999.90;;;35.20;83.40;;;;;;5029730;28;20036;-75
2023/08/08 09:37:23;;;;;;;1999.90;999.90;;;34.70;83.80;;;;;;5030396;28;20105;-72
2023/08/08 09:39:59;;;;;;;1999.90;999.90;;;34.70;85.00;;;;;;5030065;28;20471;-72
2023/08/08 09:42:27;;;;;;;1999.90;999.90;;;35.40;83.90;;;;;;5027926;28;20112;-72
2023/08/08 09:44:53;;;;;;;1999.90;999.90;;;35.40;84.00;;;;;;5033840;28;20504;-72
2023/08/08 09:47:20;;;;;;;1999.90;999.90;;;33.90;84.20;;;;;;5032306;28;20053;-78
2023/08/08 09:49:47;;;;;;;1999.90;999.90;;;34.30;85.40;;;;;;5014420;28;20029;-72
2023/08/08 09:52:13;;;;;;;1999.90;999.90;;;34.60;83.90;;;;;;5032899;28;20021;-73
2023/08/08 09:54:39;;;;;;;1999.90;999.90;;;33.30;84.00;;;;;;5015393;28;20503;-72
2023/08/08 09:57:06;;;;;;;1999.90;999.90;;;33.40;84.80;;;;;;5032686;28;20029;-73
2023/08/08 09:59:32;;;;;;;1999.90;999.90;;;34.20;84.00;;;;;;5032708;28;20017;-72
2023/08/08 10:01:59;;;;;;;1999.90;999.90;;;33.70;84.20;;;;;;5050027;28;20511;-75
2023/08/08 10:04:25;;;;;;;1999.90;999.90;;;33.80;83.00;;;;;;5052261;28;20033;-72
2023/08/08 10:06:51;;;;;;;1999.90;999.90;;;33.70;83.60;;;;;;5048021;28;20034;-72
2023/08/08 10:09:18;;;;;;;1999.90;999.90;;;33.90;83.40;;;;;;5007940;28;20035;-72
2023/08/08 10:11:44;;;;;;;1999.90;999.90;;;33.00;83.90;;;;;;5030412;28;20053;-74
2023/08/08 10:14:11;;;;;;;1999.90;999.90;;;33.30;84.70;;;;;;5025030;28;20108;-75
2023/08/08 10:16:37;;;;;;;1999.90;999.90;;;32.50;83.70;;;;;;5022156;28;20115;-72
2023/08/08 10:19:05;;;;;;;1999.90;999.90;;;32.50;85.00;;;;;;5028009;28;20040;-72
2023/08/08 10:21:44;;;;;;;1999.90;999.90;;;33.20;85.50;;;;;;5031219;28;20025;-72
2023/08/08 10:24:10;;;;;;;1999.90;999.90;;;33.40;83.80;;;;;;5004168;28;20403;-72
2023/08/08 10:27:11;;;;;;;1999.90;999.90;;;33.30;84.30;;;;;;5028519;28;20029;-75
2023/08/08 10:29:38;;;;;;;1999.90;999.90;;;31.30;85.60;;;;;;4954105;28;20082;-72
2023/08/08 10:32:06;;;;;;;1999.90;999.90;;;31.40;86.90;;;;;;4960726;28;20042;-73
2023/08/08 10:34:41;;;;;;;1999.90;999.90;;;30.10;86.00;;;;;;4952999;28;20030;-72
2023/08/08 10:37:20;;;;;;;1999.90;999.90;;;31.30;86.50;;;;;;4950277;28;20035;-72
2023/08/08 10:39:58;;;;;;;1999.90;999.90;;;30.90;87.50;;;;;;4950869;28;20469;-75
2023/08/08 10:42:28;;;;;;;1999.90;999.90;;;30.30;86.90;;;;;;4932999;28;20581;-72
2023/08/08 10:44:58;;;;;;;1999.90;999.90;;;29.80;87.70;;;;;;4964711;28;20557;-73
2023/08/08 10:47:25;;;;;;;1999.90;999.90;;;30.80;88.00;;;;;;4953947;28;20027;-72
2023/08/08 10:50:07;;;;;;;1999.90;999.90;;;31.70;87.40;;;;;;4952060;28;20046;-72
2023/08/08 10:52:37;;;;;;;1999.90;999.90;;;32.50;85.90;;;;;;4953564;28;20042;-73
2023/08/08 10:55:03;;;;;;;1999.90;999.90;;;33.00;85.20;;;;;;4950377;28;20074;-73
2023/08/08 10:57:30;;;;;;;1999.90;999.90;;;31.20;84.40;;;;;;4951548;28;20113;-73
2023/08/08 11:00:16;;;;;;;1999.90;999.90;;;31.10;85.60;;;;;;4955095;28;20046;-73
2023/08/08 11:02:43;;;;;;;1999.90;999.90;;;30.60;86.90;;;;;;4970009;28;20098;-72
2023/08/08 11:05:09;;;;;;;1999.90;999.90;;;30.10;88.00;;;;;;5030813;28;20033;-72
2023/08/08 11:07:37;;;;;;;1999.90;999.90;;;30.30;88.60;;;;;;5023169;28;20036;-76
2023/08/08 11:10:04;;;;;;;1999.90;999.90;;;29.50;88.60;;;;;;5024998;28;20022;-71
2023/08/08 11:12:29;;;;;;;1999.90;999.90;;;29.00;91.10;;;;;;5031853;28;20029;-71
2023/08/08 11:14:55;;;;;;;1999.90;999.90;;;28.60;92.20;;;;;;5003919;28;20120;-72
2023/08/08 11:17:20;;;;;;;1999.90;999.90;;;28.50;93.30;;;;;;4998393;28;20481;-75
2023/08/08 11:19:46;;;;;;;1999.90;999.90;;;28.60;94.20;;;;;;5029766;28;20473;-74
2023/08/08 11:22:11;;;;;;;1999.90;999.90;;;28.00;94.00;;;;;;5029690;28;20499;-71
2023/08/08 11:24:37;;;;;;;1999.90;999.90;;;27.90;94.60;;;;;;5030207;28;20120;-70
2023/08/08 11:27:04;;;;;;;1999.90;999.90;;;28.10;94.60;;;;;;5030317;28;20071;-71
2023/08/08 11:29:30;;;;;;;1999.90;999.90;;;28.90;93.90;;;;;;5030280;28;20026;-72
2023/08/08 11:31:59;;;;;;;1999.90;999.90;;;29.20;92.90;;;;;;5012892;28;20413;-75
2023/08/08 11:34:25;;;;;;;1999.90;999.90;;;29.70;92.90;;;;;;5030412;28;20599;-72
2023/08/08 11:36:51;;;;;;;1999.90;999.90;;;30.40;92.00;;;;;;5030627;28;20112;-72
2023/08/08 11:39:17;;;;;;;1999.90;999.90;;;31.00;91.40;;;;;;5030674;28;20105;-72
2023/08/08 11:41:43;;;;;;;1999.90;999.90;;;31.60;90.70;;;;;;5030720;28;20159;-71
2023/08/08 11:44:09;;;;;;;1999.90;999.90;;;32.00;90.20;;;;;;5030461;28;20069;-76
2023/08/08 11:46:34;;;;;;;1999.90;999.90;;;31.70;90.70;;;;;;5012452;28;20041;-72
2023/08/08 11:49:06;;;;;;;1999.90;999.90;;;31.60;90.60;;;;;;5029266;28;20076;-71
2023/08/08 11:51:33;;;;;;;1999.90;999.90;;;31.00;91.20;;;;;;5027847;28;20388;-71
2023/08/08 11:54:00;;;;;;;1999.90;999.90;;;30.50;91.20;;;;;;5027095;28;20773;-71
2023/08/08 11:56:26;;;;;;;1999.90;999.90;;;29.30;91.30;;;;;;5033286;28;20510;-72